createdAt,value
2022-08-03T00:01:24.205Z,11.60
2022-08-03T00:03:53.211Z,9.68
2022-08-03T00:06:22.181Z,5.90
2022-08-03T00:08:51.292Z,8.18
2022-08-03T00:11:20.685Z,11.35
2022-08-03T00:13:49.791Z,7.50
2022-08-03T00:16:21.449Z,7.50
2022-08-03T00:18:52.377Z,9.85
2022-08-03T00:21:21.566Z,9.57
2022-08-03T00:23:51.498Z,9.13
2022-08-03T00:26:22.072Z,7.90
2022-08-03T00:28:51.954Z,6.32
2022-08-03T00:31:35.227Z,7.80
2022-08-03T00:34:12.512Z,8.63
2022-08-03T00:36:41.898Z,9.63
2022-08-03T00:39:11.148Z,6.60
2022-08-03T00:41:40.400Z,9.82
2022-08-03T00:44:09.382Z,7.93
2022-08-03T00:46:39.703Z,10.55
2022-08-03T00:49:09.011Z,7.55
2022-08-03T00:51:37.956Z,7.82
2022-08-03T00:54:06.980Z,6.97
2022-08-03T00:56:37.072Z,14.27
2022-08-03T00:59:06.496Z,8.20
2022-08-03T01:01:35.392Z,5.82
2022-08-03T01:04:06.614Z,8.02
2022-08-03T01:06:44.448Z,4.15
2022-08-03T01:09:21.024Z,11.52
2022-08-03T01:12:00.631Z,9.60
2022-08-03T01:14:39.905Z,9.55
2022-08-03T01:17:16.445Z,6.70
2022-08-03T01:19:55.288Z,6.47
2022-08-03T01:23:00.963Z,7.30
2022-08-03T01:25:45.685Z,8.15
2022-08-03T01:28:34.697Z,5.05
2022-08-03T01:31:08.656Z,7.32
2022-08-03T01:33:41.757Z,9.07
2022-08-03T01:36:14.983Z,9.10
2022-08-03T01:38:48.148Z,8.48
2022-08-03T01:41:22.598Z,7.70
2022-08-03T01:44:26.828Z,4.97
2022-08-03T01:46:49.297Z,5.43
2022-08-03T01:49:19.227Z,8.18
2022-08-03T01:52:03.179Z,8.85
2022-08-03T01:54:37.200Z,4.65
2022-08-03T01:57:07.801Z,7.00
2022-08-03T01:59:40.089Z,7.70
2022-08-03T02:02:32.097Z,8.98
2022-08-03T02:05:05.761Z,10.93
2022-08-03T02:07:43.079Z,4.10
2022-08-03T02:10:16.065Z,7.60
2022-08-03T02:13:06.535Z,8.10
2022-08-03T02:15:37.403Z,5.68
2022-08-03T02:18:10.939Z,5.78
2022-08-03T02:20:41.590Z,3.58
2022-08-03T02:23:11.482Z,10.07
2022-08-03T02:25:45.773Z,9.73
2022-08-03T02:28:21.713Z,8.07
2022-08-03T02:30:55.729Z,6.60
2022-08-03T02:33:33.173Z,4.30
2022-08-03T02:36:04.053Z,4.47
2022-08-03T02:38:38.174Z,5.13
2022-08-03T02:41:14.720Z,3.80
2022-08-03T02:44:06.056Z,3.92
2022-08-03T02:46:38.798Z,6.65
2022-08-03T02:49:41.062Z,4.35
2022-08-03T02:52:02.926Z,3.22
2022-08-03T02:54:34.294Z,4.20
2022-08-03T02:57:04.382Z,6.18
2022-08-03T02:59:35.038Z,6.78
2022-08-03T03:02:04.838Z,5.85
2022-08-03T03:04:36.560Z,5.60
2022-08-03T03:07:06.320Z,5.07
2022-08-03T03:09:41.610Z,9.05
2022-08-03T03:13:37.250Z,7.35
2022-08-03T03:16:11.474Z,8.30
2022-08-03T03:18:40.970Z,5.65
2022-08-03T03:21:12.439Z,7.60
2022-08-03T03:23:42.702Z,5.75
2022-08-03T03:26:14.449Z,8.02
2022-08-03T03:28:44.108Z,6.05
2022-08-03T03:31:13.755Z,5.13
2022-08-03T03:33:42.767Z,4.50
2022-08-03T03:36:13.725Z,8.18
2022-08-03T03:38:43.389Z,8.70
2022-08-03T03:41:12.919Z,4.88
2022-08-03T03:43:42.477Z,6.10
2022-08-03T03:46:14.413Z,7.47
2022-08-03T03:48:43.796Z,6.05
2022-08-03T03:51:15.022Z,13.85
2022-08-03T03:53:57.341Z,8.52
2022-08-03T03:56:26.867Z,4.78
2022-08-03T03:58:56.357Z,3.78
2022-08-03T04:01:25.805Z,5.25
2022-08-03T04:03:55.067Z,5.05
2022-08-03T04:06:43.062Z,3.70
2022-08-03T04:09:30.600Z,3.60
2022-08-03T04:12:02.957Z,3.97
2022-08-03T04:14:36.321Z,5.90
2022-08-03T04:17:08.455Z,3.17
2022-08-03T04:19:41.780Z,3.88
2022-08-03T04:22:15.628Z,8.50
2022-08-03T04:24:48.495Z,5.03
2022-08-03T04:27:22.257Z,11.43
2022-08-03T04:29:54.284Z,7.38
2022-08-03T04:32:28.645Z,3.78
2022-08-03T04:34:58.407Z,4.93
2022-08-03T04:37:39.426Z,6.70
2022-08-03T04:40:14.474Z,5.07
2022-08-03T04:42:45.904Z,5.93
2022-08-03T04:45:17.736Z,6.15
2022-08-03T04:47:47.402Z,6.03
2022-08-03T04:50:21.587Z,7.35
2022-08-03T04:53:07.715Z,5.28
2022-08-03T04:55:37.691Z,7.97
2022-08-03T04:58:07.452Z,5.80
2022-08-03T05:00:36.456Z,3.28
2022-08-03T05:03:20.245Z,7.75
2022-08-03T05:06:09.491Z,13.07
2022-08-03T05:08:46.852Z,7.03
2022-08-03T05:11:17.001Z,8.32
2022-08-03T05:13:46.759Z,8.68
2022-08-03T05:16:16.253Z,6.13
2022-08-03T05:18:46.105Z,7.80
2022-08-03T05:21:16.995Z,8.23
2022-08-03T05:23:47.432Z,13.23
2022-08-03T05:26:16.888Z,7.38
2022-08-03T05:28:51.119Z,11.15
2022-08-03T05:31:21.142Z,4.20
2022-08-03T05:33:50.352Z,4.22
2022-08-03T05:36:19.225Z,7.13
2022-08-03T05:38:49.956Z,5.90
2022-08-03T05:41:21.432Z,4.15
2022-08-03T05:43:53.867Z,9.20
2022-08-03T05:46:23.899Z,8.80
2022-08-03T05:48:52.911Z,7.22
2022-08-03T05:51:22.188Z,8.73
2022-08-03T05:53:52.603Z,10.75
2022-08-03T05:56:25.273Z,5.70
2022-08-03T05:58:54.708Z,5.28
2022-08-03T06:01:24.191Z,6.60
2022-08-03T06:03:53.779Z,8.48
2022-08-03T06:06:23.106Z,7.05
2022-08-03T06:08:54.563Z,7.90
2022-08-03T06:11:23.525Z,5.40
2022-08-03T06:13:52.612Z,4.72
2022-08-03T06:16:21.625Z,11.10
2022-08-03T06:18:50.844Z,10.43
2022-08-03T06:21:20.152Z,12.35
2022-08-03T06:23:55.503Z,7.90
2022-08-03T06:26:29.283Z,10.45
2022-08-03T06:28:58.305Z,6.82
2022-08-03T06:31:33.316Z,4.90
2022-08-03T06:34:33.639Z,10.97
2022-08-03T06:37:01.693Z,9.75
2022-08-03T06:39:32.724Z,5.28
2022-08-03T06:42:02.060Z,6.43
2022-08-03T06:44:31.326Z,6.90
2022-08-03T06:47:00.217Z,9.48
2022-08-03T06:49:29.479Z,4.40
2022-08-03T06:52:03.631Z,3.17
2022-08-03T06:54:38.175Z,3.80
2022-08-03T06:57:08.390Z,8.88
2022-08-03T07:00:10.365Z,6.68
2022-08-03T07:02:28.377Z,5.82
2022-08-03T07:04:58.497Z,3.78
2022-08-03T07:07:27.450Z,4.43
2022-08-03T07:09:58.388Z,5.97
2022-08-03T07:12:29.617Z,8.18
2022-08-03T07:15:02.119Z,8.90
2022-08-03T07:17:37.246Z,5.80
2022-08-03T07:20:08.962Z,10.98
2022-08-03T07:22:38.978Z,6.45
2022-08-03T07:25:10.547Z,7.45
2022-08-03T07:27:39.924Z,8.27
2022-08-03T07:30:10.444Z,15.30
2022-08-03T07:32:50.458Z,9.40
2022-08-03T07:35:24.845Z,8.55
2022-08-03T07:37:55.250Z,8.25
2022-08-03T07:40:31.484Z,6.10
2022-08-03T07:43:02.306Z,11.77
2022-08-03T07:45:31.838Z,5.90
2022-08-03T07:48:01.330Z,12.43
2022-08-03T07:50:30.586Z,9.45
2022-08-03T07:52:59.875Z,6.28
2022-08-03T07:55:30.893Z,8.65
2022-08-03T07:58:05.000Z,6.53
2022-08-03T08:00:34.813Z,9.77
2022-08-03T08:03:04.097Z,7.57
2022-08-03T08:05:33.910Z,9.98
2022-08-03T08:08:03.390Z,9.23
2022-08-03T08:10:35.433Z,6.75
2022-08-03T08:13:05.459Z,10.85
2022-08-03T08:15:34.831Z,5.90
2022-08-03T08:18:04.629Z,8.98
2022-08-03T08:20:37.930Z,11.98
2022-08-03T08:23:37.893Z,10.03
2022-08-03T08:25:59.684Z,6.55
2022-08-03T08:28:32.899Z,6.65
2022-08-03T08:31:03.426Z,10.87
2022-08-03T08:34:02.696Z,4.07
2022-08-03T08:36:24.204Z,5.30
2022-08-03T08:38:53.582Z,6.05
2022-08-03T08:41:24.065Z,6.47
2022-08-03T08:44:01.606Z,2.42
2022-08-03T08:46:33.888Z,4.60
2022-08-03T08:49:04.790Z,2.38
2022-08-03T08:51:51.040Z,3.30
2022-08-03T08:54:28.515Z,3.92
2022-08-03T08:57:03.171Z,2.67
2022-08-03T08:59:48.360Z,2.50
2022-08-03T09:02:19.302Z,2.17
2022-08-03T09:04:49.419Z,3.13
2022-08-03T09:07:20.453Z,3.00
2022-08-03T09:10:12.013Z,3.45
2022-08-03T09:12:43.414Z,2.20
2022-08-03T09:15:21.330Z,3.20
2022-08-03T09:17:54.935Z,2.17
2022-08-03T09:20:26.731Z,3.08
2022-08-03T09:22:59.114Z,2.20
2022-08-03T09:25:30.506Z,5.15
2022-08-03T09:28:10.358Z,3.03
2022-08-03T09:30:41.702Z,4.10
2022-08-03T09:33:12.373Z,2.28
2022-08-03T09:35:54.881Z,2.30
2022-08-03T09:38:27.772Z,2.65
2022-08-03T09:41:00.796Z,4.15
2022-08-03T09:43:47.928Z,2.10
2022-08-03T09:46:17.468Z,3.15
2022-08-03T09:48:46.683Z,2.47
2022-08-03T09:51:32.882Z,5.15
2022-08-03T09:54:05.578Z,4.80
2022-08-03T09:56:41.812Z,2.55
2022-08-03T09:59:14.525Z,2.88
2022-08-03T10:01:44.056Z,3.33
2022-08-03T10:04:18.130Z,5.05
2022-08-03T10:07:03.911Z,2.83
2022-08-03T10:09:33.354Z,4.50
2022-08-03T10:12:10.442Z,3.08
2022-08-03T10:14:45.473Z,5.30
2022-08-03T10:17:15.304Z,2.65
2022-08-03T10:19:44.699Z,3.95
2022-08-03T10:22:16.615Z,5.82
2022-08-03T10:24:56.967Z,3.97
2022-08-03T10:27:28.061Z,6.70
2022-08-03T10:30:03.202Z,3.22
2022-08-03T10:32:35.530Z,2.05
2022-08-03T10:35:20.012Z,3.13
2022-08-03T10:37:58.682Z,2.28
2022-08-03T10:40:47.979Z,3.67
2022-08-03T10:43:22.961Z,2.97
2022-08-03T10:45:54.439Z,3.37
2022-08-03T10:48:24.487Z,3.63
2022-08-03T10:50:54.838Z,2.60
2022-08-03T10:53:37.517Z,2.33
2022-08-03T10:56:26.626Z,2.10
2022-08-03T10:59:22.948Z,8.00
2022-08-03T11:02:00.541Z,2.60
2022-08-03T11:04:31.155Z,4.03
2022-08-03T11:07:23.264Z,2.22
2022-08-03T11:09:54.046Z,4.10
2022-08-03T11:12:29.851Z,2.95
2022-08-03T11:15:03.306Z,1.90
2022-08-03T11:18:12.311Z,7.15
2022-08-03T11:20:49.529Z,4.30
2022-08-03T11:24:02.910Z,2.33
2022-08-03T11:26:17.476Z,1.75
2022-08-03T11:28:48.934Z,3.72
2022-08-03T11:31:50.118Z,1.90
2022-08-03T11:34:21.318Z,4.65
2022-08-03T11:37:20.881Z,2.60
2022-08-03T11:39:57.282Z,5.13
2022-08-03T11:42:48.535Z,2.20
2022-08-03T11:45:19.992Z,3.60
2022-08-03T11:47:55.105Z,2.55
2022-08-03T11:50:27.193Z,4.05
2022-08-03T11:52:57.384Z,3.03
2022-08-03T11:55:30.643Z,2.25
2022-08-03T11:59:01.609Z,1.83
2022-08-03T12:00:51.679Z,2.28
2022-08-03T12:03:22.350Z,4.00
2022-08-03T12:05:54.929Z,2.25
2022-08-03T12:08:35.328Z,3.25
2022-08-03T12:11:07.009Z,8.95
2022-08-03T12:14:45.856Z,4.78
2022-08-03T12:16:30.556Z,4.68
2022-08-03T12:19:01.673Z,3.38
2022-08-03T12:21:33.508Z,2.85
2022-08-03T12:24:04.536Z,3.80
2022-08-03T12:26:59.506Z,5.57
2022-08-03T12:29:29.632Z,1.70
2022-08-03T12:31:59.090Z,2.83
2022-08-03T12:34:47.452Z,3.47
2022-08-03T12:37:22.482Z,2.92
2022-08-03T12:40:02.648Z,3.33
2022-08-03T12:42:35.715Z,2.53
2022-08-03T12:45:20.034Z,2.40
2022-08-03T13:09:42.334Z,4.30
2022-08-03T13:12:13.612Z,1.77
2022-08-03T13:14:43.238Z,3.58
2022-08-03T13:17:12.369Z,2.28
2022-08-03T13:19:42.173Z,5.57
2022-08-03T13:22:15.683Z,6.10
2022-08-03T13:24:47.396Z,1.88
2022-08-03T13:27:58.911Z,1.70
2022-08-03T13:30:06.723Z,2.55
2022-08-03T13:32:37.179Z,2.00
2022-08-03T13:35:07.923Z,2.75
2022-08-03T13:37:38.951Z,1.83
2022-08-03T13:40:11.673Z,1.98
2022-08-03T13:42:41.051Z,2.42
2022-08-03T13:45:11.497Z,6.15
2022-08-03T13:47:40.572Z,1.63
2022-08-03T13:50:10.177Z,1.85
2022-08-03T13:52:42.047Z,2.75
2022-08-03T13:55:13.190Z,3.72
2022-08-03T13:58:02.295Z,2.88
2022-08-03T14:00:32.080Z,3.00
2022-08-03T14:03:07.976Z,5.25
2022-08-03T14:05:42.383Z,2.92
2022-08-03T14:08:12.390Z,1.85
2022-08-03T14:10:44.937Z,3.03
2022-08-03T14:15:49.945Z,3.40
2022-08-03T14:18:28.691Z,3.25
2022-08-03T14:21:07.301Z,4.00
2022-08-03T14:23:38.589Z,2.53
2022-08-03T14:26:12.003Z,2.28
2022-08-03T14:28:43.075Z,1.58
2022-08-03T14:31:15.505Z,2.97
2022-08-03T14:34:01.549Z,3.08
2022-08-03T14:36:30.722Z,6.30
2022-08-03T14:39:01.583Z,2.17
2022-08-03T14:41:32.620Z,3.42
2022-08-03T14:44:02.562Z,5.43
2022-08-03T14:46:32.250Z,3.33
2022-08-03T14:50:29.294Z,2.83
2022-08-03T14:51:53.613Z,3.25
2022-08-03T14:54:23.877Z,1.67
2022-08-03T14:56:54.491Z,1.67
2022-08-03T14:59:23.528Z,4.07
2022-08-03T15:02:04.587Z,1.77
2022-08-03T15:04:36.786Z,4.38
2022-08-03T15:07:06.546Z,2.72
2022-08-03T15:09:35.581Z,2.95
2022-08-03T15:12:06.577Z,2.75
2022-08-03T15:14:36.170Z,3.17
2022-08-03T15:17:07.067Z,2.13
2022-08-03T15:20:03.088Z,2.20
2022-08-03T15:22:34.441Z,2.72
2022-08-03T15:26:03.894Z,1.60
2022-08-03T15:28:04.035Z,3.63
2022-08-03T15:30:37.215Z,1.95
2022-08-03T15:33:07.082Z,2.25
2022-08-03T15:35:36.328Z,3.25
2022-08-03T15:38:09.193Z,3.33
2022-08-03T15:40:39.600Z,2.35
2022-08-03T15:43:10.467Z,2.45
2022-08-03T15:45:41.943Z,1.85
2022-08-03T15:48:11.327Z,2.90
2022-08-03T15:50:40.939Z,5.53
2022-08-03T15:53:10.071Z,2.65
2022-08-03T15:55:40.706Z,5.07
2022-08-03T15:59:03.801Z,2.55
2022-08-03T16:01:02.196Z,4.57
2022-08-03T16:03:34.440Z,3.05
2022-08-03T16:06:04.810Z,1.48
2022-08-03T16:08:34.560Z,4.43
2022-08-03T16:11:03.551Z,6.13
2022-08-03T16:14:13.257Z,3.67
2022-08-03T16:16:23.436Z,3.08
2022-08-03T16:18:52.537Z,1.88
2022-08-03T16:21:21.895Z,3.08
2022-08-03T16:23:56.787Z,5.65
2022-08-03T16:26:25.946Z,6.43
2022-08-03T16:29:00.241Z,2.28
2022-08-03T16:31:31.555Z,1.70
2022-08-03T16:34:00.841Z,2.08
2022-08-03T16:36:34.749Z,5.80
2022-08-03T16:41:54.455Z,3.45
2022-08-03T16:44:23.853Z,1.70
2022-08-03T16:49:55.433Z,4.32
2022-08-03T16:52:14.380Z,3.47
2022-08-03T16:54:52.577Z,2.88
2022-08-03T16:57:56.116Z,7.95
2022-08-03T17:00:34.311Z,2.17
2022-08-03T17:03:12.770Z,4.47
2022-08-03T17:05:51.009Z,2.58
2022-08-03T17:08:26.482Z,3.85
2022-08-03T17:10:57.337Z,3.78
2022-08-03T17:13:27.696Z,4.40
2022-08-03T17:16:15.181Z,4.05
2022-08-03T17:18:50.081Z,3.08
2022-08-03T17:21:23.733Z,5.18
2022-08-03T17:23:59.016Z,2.85
2022-08-03T17:26:30.478Z,5.75
2022-08-03T17:29:11.257Z,2.53
2022-08-03T17:31:49.753Z,6.25
2022-08-03T17:34:20.038Z,4.00
2022-08-03T17:37:06.009Z,2.92
2022-08-03T17:39:57.762Z,3.72
2022-08-03T17:42:30.363Z,3.15
2022-08-03T17:45:03.627Z,7.18
2022-08-03T17:47:57.719Z,5.40
2022-08-03T17:50:40.371Z,4.57
2022-08-03T17:53:15.240Z,5.43
2022-08-03T17:56:36.166Z,12.82
2022-08-03T17:59:08.239Z,5.97
2022-08-03T18:02:15.269Z,5.82
2022-08-03T18:05:02.726Z,13.82
2022-08-03T18:07:49.635Z,6.03
2022-08-03T18:10:31.129Z,4.50
2022-08-03T18:13:10.504Z,5.18
2022-08-03T18:15:44.879Z,5.38
2022-08-03T18:18:29.229Z,5.45
2022-08-03T18:21:09.435Z,7.95
2022-08-03T18:26:39.576Z,7.25
2022-08-03T18:29:13.364Z,3.83
2022-08-03T18:34:35.254Z,9.23
2022-08-03T18:37:14.435Z,4.70
2022-08-03T18:39:50.179Z,5.90
2022-08-03T18:44:57.084Z,5.03
2022-08-03T18:47:50.581Z,13.93
2022-08-03T18:50:31.916Z,14.43
2022-08-03T18:53:16.514Z,7.95
2022-08-03T18:56:02.228Z,16.13
2022-08-03T18:58:40.617Z,12.13
2022-08-03T19:02:00.976Z,7.80
2022-08-03T19:04:13.782Z,7.53
2022-08-03T19:06:45.947Z,10.88
2022-08-03T19:09:27.873Z,9.07
2022-08-03T19:12:12.526Z,12.57
2022-08-03T19:14:57.705Z,10.73
2022-08-03T19:17:31.804Z,9.20
2022-08-03T19:20:03.793Z,10.07
2022-08-03T19:22:36.901Z,6.75
2022-08-03T19:25:11.966Z,5.05
2022-08-03T19:27:45.525Z,8.68
2022-08-03T19:30:31.293Z,7.32
2022-08-03T19:33:02.149Z,8.63
2022-08-03T19:35:51.610Z,9.43
2022-08-03T19:38:28.755Z,7.05
2022-08-03T19:41:03.887Z,4.07
2022-08-03T19:46:31.731Z,7.88
2022-08-03T19:52:01.058Z,8.57
2022-08-03T19:54:45.508Z,6.50
2022-08-03T19:57:27.230Z,9.63
2022-08-03T19:59:57.930Z,6.83
2022-08-03T20:02:29.757Z,7.80
2022-08-03T20:05:00.518Z,6.43
2022-08-03T20:07:32.372Z,6.88
2022-08-03T20:10:02.989Z,12.30
2022-08-03T20:12:39.402Z,4.90
2022-08-03T20:15:11.495Z,11.07
2022-08-03T20:17:56.126Z,10.48
2022-08-03T20:20:29.443Z,7.13
2022-08-03T20:23:00.850Z,10.48
2022-08-03T20:25:38.041Z,8.57
2022-08-03T20:28:14.129Z,7.70
2022-08-03T20:30:47.476Z,7.90
2022-08-03T20:33:18.379Z,9.13
2022-08-03T20:35:49.936Z,14.02
2022-08-03T20:38:20.393Z,11.85
2022-08-03T20:40:59.200Z,8.40
2022-08-03T20:43:30.220Z,6.85
2022-08-03T20:46:31.802Z,6.95
2022-08-03T20:48:49.403Z,11.63
2022-08-03T20:51:20.194Z,7.03
2022-08-03T20:54:29.324Z,7.45
2022-08-03T20:57:04.182Z,8.52
2022-08-03T20:59:50.561Z,9.80
2022-08-03T21:02:29.882Z,11.85
2022-08-03T21:05:03.702Z,12.50
2022-08-03T21:10:33.606Z,8.65
2022-08-03T21:12:57.900Z,5.05
2022-08-03T21:13:04.405Z,5.80
2022-08-03T21:13:08.030Z,10.57
2022-08-03T21:13:08.996Z,6.55
2022-08-03T21:13:09.487Z,7.77
2022-08-03T21:16:13.135Z,10.00
2022-08-03T21:18:47.343Z,8.05
2022-08-03T21:21:19.605Z,13.33
2022-08-03T21:23:52.698Z,6.43
2022-08-03T21:26:23.997Z,6.82
2022-08-03T21:28:55.739Z,11.77
2022-08-03T21:31:27.787Z,7.15
2022-08-03T21:33:58.124Z,6.95
2022-08-03T21:36:29.354Z,8.88
2022-08-03T21:39:00.449Z,9.55
2022-08-03T21:41:32.397Z,12.13
2022-08-03T21:44:02.494Z,10.30
2022-08-03T21:46:37.906Z,11.95
2022-08-03T21:50:05.454Z,8.00
2022-08-03T21:52:04.051Z,8.57
2022-08-03T21:54:36.574Z,10.40
2022-08-03T21:57:09.867Z,12.25
2022-08-03T21:59:42.095Z,9.98
2022-08-03T22:02:22.508Z,7.53
2022-08-03T22:04:56.987Z,6.78
2022-08-03T22:07:29.811Z,9.07
2022-08-03T22:10:00.734Z,7.32
2022-08-03T22:12:32.071Z,13.20
2022-08-03T22:15:04.221Z,9.23
2022-08-03T22:17:55.936Z,11.27
2022-08-03T22:20:26.786Z,8.23
2022-08-03T22:23:00.402Z,7.47
2022-08-03T22:25:31.419Z,9.18
2022-08-03T22:28:03.323Z,15.23
2022-08-03T22:30:33.346Z,8.18
2022-08-03T22:33:11.078Z,7.00
2022-08-03T22:35:46.484Z,8.63
2022-08-03T22:38:18.804Z,10.40
2022-08-03T22:40:51.139Z,10.38
2022-08-03T22:43:24.306Z,11.60
2022-08-03T22:46:10.138Z,18.60
2022-08-03T22:48:45.572Z,8.70
2022-08-03T22:51:16.555Z,12.50
2022-08-03T22:53:47.313Z,7.32
2022-08-03T22:56:16.879Z,13.98
2022-08-03T22:58:46.258Z,11.85
2022-08-03T23:01:19.512Z,13.48
2022-08-03T23:04:02.233Z,6.35
2022-08-03T23:06:36.165Z,8.25
2022-08-03T23:09:10.141Z,11.38
2022-08-03T23:11:45.598Z,6.03
2022-08-03T23:14:17.310Z,7.57
2022-08-03T23:16:47.874Z,15.95
2022-08-03T23:19:25.036Z,12.18
2022-08-03T23:22:02.596Z,9.43
2022-08-03T23:24:36.953Z,10.88
2022-08-03T23:27:07.246Z,7.22
2022-08-03T23:29:37.676Z,7.05
2022-08-03T23:32:08.052Z,6.13
2022-08-03T23:34:58.711Z,7.22
2022-08-03T23:37:28.368Z,9.70
2022-08-03T23:39:59.616Z,9.75
2022-08-03T23:42:30.183Z,11.77
2022-08-03T23:45:06.145Z,6.30
2022-08-03T23:47:46.945Z,7.72
2022-08-03T23:50:18.583Z,8.20
2022-08-03T23:52:58.938Z,9.80
2022-08-03T23:55:42.335Z,11.27
2022-08-03T23:58:23.953Z,8.63
